Accueil
METAR-TAF:

METAR-TAF

Aéroports :

Point Hope, Alaska, États-Unis

latitude: 68-21N, longitude: 166-48W, altitude: 4 m

Observation

Le bulletin a été fait il y a 12 minutes, à 05:26 UTC
Vent 8 kt de nord-est
Température -8°C
Humidité 92%
Pression 991 hPa
Visibilité: 16.1 km
Ciel couvert à une hauteur de 2800 ft

METAR: PAPO 080526Z AUTO 05008KT 10SM OVC028 M08/M09 A2927 RMK AO2 SNE01 P0000 FZRANO

Heure: 20:38 (05:38 UTC)


TAF: absent

Observations et prévisions météorologiques de plus de 4000 aéroports (messages METAR et TAF).

Les stations disponibles sont représentées par des disques jaunes et rouges sur la carte.

Passer la souris dessus pour voir le nom de la station.

Cliquer dessus pour voir les observations et prévisions météorologiques.

Pour changer de carte: cliquez sur les boutons verts avec une croix noire pour zoomer, sur le bouton vert avec un tiret pour effectuer un zoom arrière, ou sur les flèches vertes pour les cartes adjacentes.


METAR-TAF: